sensor_id;sensor_type;location;lat;lon;timestamp;P1;durP1;ratioP1;P2;durP2;ratioP2
18433;SDS011;9344;52.294;13.626;2022-12-18T00:01:49;14.47;;;6.13;;
18433;SDS011;9344;52.294;13.626;2022-12-18T00:04:18;20.57;;;7.43;;
18433;SDS011;9344;52.294;13.626;2022-12-18T00:06:47;18.67;;;6.87;;
18433;SDS011;9344;52.294;13.626;2022-12-18T00:09:13;20.07;;;7.43;;
18433;SDS011;9344;52.294;13.626;2022-12-18T00:11:40;20.10;;;6.87;;
18433;SDS011;9344;52.294;13.626;2022-12-18T00:14:09;27.00;;;7.10;;
18433;SDS011;9344;52.294;13.626;2022-12-18T00:16:38;20.40;;;7.47;;
18433;SDS011;9344;52.294;13.626;2022-12-18T00:19:05;18.97;;;6.47;;
18433;SDS011;9344;52.294;13.626;2022-12-18T00:21:32;15.90;;;5.60;;
18433;SDS011;9344;52.294;13.626;2022-12-18T00:23:59;21.80;;;6.27;;
18433;SDS011;9344;52.294;13.626;2022-12-18T00:26:27;20.10;;;5.97;;
18433;SDS011;9344;52.294;13.626;2022-12-18T00:28:58;15.07;;;5.70;;
18433;SDS011;9344;52.294;13.626;2022-12-18T00:31:26;19.17;;;5.83;;
18433;SDS011;9344;52.294;13.626;2022-12-18T00:33:53;30.60;;;7.57;;
18433;SDS011;9344;52.294;13.626;2022-12-18T00:36:21;15.80;;;5.70;;
18433;SDS011;9344;52.294;13.626;2022-12-18T00:38:48;18.73;;;5.37;;
18433;SDS011;9344;52.294;13.626;2022-12-18T00:41:16;26.23;;;7.73;;
18433;SDS011;9344;52.294;13.626;2022-12-18T00:44:03;21.10;;;7.97;;
18433;SDS011;9344;52.294;13.626;2022-12-18T00:46:31;14.47;;;5.63;;
18433;SDS011;9344;52.294;13.626;2022-12-18T00:48:58;18.30;;;6.63;;
18433;SDS011;9344;52.294;13.626;2022-12-18T00:51:25;26.40;;;7.37;;
18433;SDS011;9344;52.294;13.626;2022-12-18T00:53:51;23.00;;;8.73;;
18433;SDS011;9344;52.294;13.626;2022-12-18T00:56:18;22.37;;;8.00;;
18433;SDS011;9344;52.294;13.626;2022-12-18T00:58:44;22.97;;;6.50;;
18433;SDS011;9344;52.294;13.626;2022-12-18T01:01:11;20.77;;;7.30;;
18433;SDS011;9344;52.294;13.626;2022-12-18T01:03:39;15.87;;;6.80;;
18433;SDS011;9344;52.294;13.626;2022-12-18T01:06:06;20.40;;;6.17;;
18433;SDS011;9344;52.294;13.626;2022-12-18T01:08:33;20.53;;;7.87;;
18433;SDS011;9344;52.294;13.626;2022-12-18T01:11:00;17.57;;;5.87;;
18433;SDS011;9344;52.294;13.626;2022-12-18T01:13:26;22.73;;;6.93;;
18433;SDS011;9344;52.294;13.626;2022-12-18T01:15:53;18.53;;;5.37;;
18433;SDS011;9344;52.294;13.626;2022-12-18T01:18:19;15.60;;;6.43;;
18433;SDS011;9344;52.294;13.626;2022-12-18T01:20:47;22.33;;;6.33;;
18433;SDS011;9344;52.294;13.626;2022-12-18T01:23:14;18.17;;;5.90;;
18433;SDS011;9344;52.294;13.626;2022-12-18T01:25:40;21.27;;;6.87;;
18433;SDS011;9344;52.294;13.626;2022-12-18T01:28:07;18.60;;;5.87;;
18433;SDS011;9344;52.294;13.626;2022-12-18T01:30:33;21.10;;;5.93;;
18433;SDS011;9344;52.294;13.626;2022-12-18T01:33:00;19.97;;;5.73;;
18433;SDS011;9344;52.294;13.626;2022-12-18T01:35:26;23.37;;;8.23;;
18433;SDS011;9344;52.294;13.626;2022-12-18T01:37:55;13.27;;;5.07;;
18433;SDS011;9344;52.294;13.626;2022-12-18T01:40:21;11.97;;;5.77;;
18433;SDS011;9344;52.294;13.626;2022-12-18T01:42:49;22.33;;;6.20;;
18433;SDS011;9344;52.294;13.626;2022-12-18T01:45:22;25.60;;;6.37;;
18433;SDS011;9344;52.294;13.626;2022-12-18T01:47:50;21.40;;;7.03;;
18433;SDS011;9344;52.294;13.626;2022-12-18T01:50:20;21.23;;;6.07;;
18433;SDS011;9344;52.294;13.626;2022-12-18T01:52:50;16.57;;;4.93;;
18433;SDS011;9344;52.294;13.626;2022-12-18T01:55:22;20.13;;;5.40;;
18433;SDS011;9344;52.294;13.626;2022-12-18T01:57:51;24.30;;;7.20;;
18433;SDS011;9344;52.294;13.626;2022-12-18T02:00:20;13.67;;;5.83;;
18433;SDS011;9344;52.294;13.626;2022-12-18T02:02:47;17.27;;;5.47;;
18433;SDS011;9344;52.294;13.626;2022-12-18T02:05:15;15.07;;;6.17;;
18433;SDS011;9344;52.294;13.626;2022-12-18T02:07:45;25.90;;;7.43;;
18433;SDS011;9344;52.294;13.626;2022-12-18T02:10:24;21.43;;;6.47;;
18433;SDS011;9344;52.294;13.626;2022-12-18T02:12:56;19.03;;;6.00;;
18433;SDS011;9344;52.294;13.626;2022-12-18T02:15:31;16.30;;;4.63;;
18433;SDS011;9344;52.294;13.626;2022-12-18T02:18:05;15.70;;;5.47;;
18433;SDS011;9344;52.294;13.626;2022-12-18T02:20:36;13.43;;;5.60;;
18433;SDS011;9344;52.294;13.626;2022-12-18T02:23:10;19.47;;;5.57;;
18433;SDS011;9344;52.294;13.626;2022-12-18T02:25:54;16.43;;;5.67;;
18433;SDS011;9344;52.294;13.626;2022-12-18T02:28:36;16.33;;;5.50;;
18433;SDS011;9344;52.294;13.626;2022-12-18T02:31:08;17.00;;;7.20;;
18433;SDS011;9344;52.294;13.626;2022-12-18T02:33:39;15.50;;;5.23;;
18433;SDS011;9344;52.294;13.626;2022-12-18T02:36:07;10.30;;;5.27;;
18433;SDS011;9344;52.294;13.626;2022-12-18T02:38:35;18.80;;;5.43;;
18433;SDS011;9344;52.294;13.626;2022-12-18T02:41:04;26.97;;;6.10;;
18433;SDS011;9344;52.294;13.626;2022-12-18T02:43:31;10.47;;;4.30;;
18433;SDS011;9344;52.294;13.626;2022-12-18T02:45:58;13.30;;;4.97;;
18433;SDS011;9344;52.294;13.626;2022-12-18T02:48:28;12.40;;;5.50;;
18433;SDS011;9344;52.294;13.626;2022-12-18T02:50:59;23.63;;;5.67;;
18433;SDS011;9344;52.294;13.626;2022-12-18T02:53:33;14.50;;;4.50;;
18433;SDS011;9344;52.294;13.626;2022-12-18T02:56:07;19.90;;;5.03;;
18433;SDS011;9344;52.294;13.626;2022-12-18T02:58:40;13.57;;;5.90;;
18433;SDS011;9344;52.294;13.626;2022-12-18T03:01:15;19.23;;;6.43;;
18433;SDS011;9344;52.294;13.626;2022-12-18T03:03:47;16.07;;;4.97;;
18433;SDS011;9344;52.294;13.626;2022-12-18T03:06:19;15.43;;;6.10;;
18433;SDS011;9344;52.294;13.626;2022-12-18T03:08:51;19.90;;;6.03;;
18433;SDS011;9344;52.294;13.626;2022-12-18T03:11:23;17.23;;;5.60;;
18433;SDS011;9344;52.294;13.626;2022-12-18T03:14:08;15.00;;;5.97;;
18433;SDS011;9344;52.294;13.626;2022-12-18T03:16:37;18.13;;;5.97;;
18433;SDS011;9344;52.294;13.626;2022-12-18T03:19:08;15.70;;;5.70;;
18433;SDS011;9344;52.294;13.626;2022-12-18T03:21:38;15.07;;;5.50;;
18433;SDS011;9344;52.294;13.626;2022-12-18T03:24:07;21.93;;;6.40;;
18433;SDS011;9344;52.294;13.626;2022-12-18T03:26:37;24.67;;;6.37;;
18433;SDS011;9344;52.294;13.626;2022-12-18T03:29:12;16.50;;;5.50;;
18433;SDS011;9344;52.294;13.626;2022-12-18T03:31:45;15.53;;;5.57;;
18433;SDS011;9344;52.294;13.626;2022-12-18T03:34:15;21.53;;;6.23;;
18433;SDS011;9344;52.294;13.626;2022-12-18T03:36:47;19.83;;;6.17;;
18433;SDS011;9344;52.294;13.626;2022-12-18T03:39:15;34.33;;;9.53;;
18433;SDS011;9344;52.294;13.626;2022-12-18T03:41:44;32.70;;;8.93;;
18433;SDS011;9344;52.294;13.626;2022-12-18T03:44:17;34.90;;;13.67;;
18433;SDS011;9344;52.294;13.626;2022-12-18T03:46:53;25.53;;;8.57;;
18433;SDS011;9344;52.294;13.626;2022-12-18T03:49:25;26.43;;;8.50;;
18433;SDS011;9344;52.294;13.626;2022-12-18T03:51:59;20.67;;;7.67;;
18433;SDS011;9344;52.294;13.626;2022-12-18T03:54:29;25.10;;;7.13;;
18433;SDS011;9344;52.294;13.626;2022-12-18T03:56:59;32.03;;;7.40;;
18433;SDS011;9344;52.294;13.626;2022-12-18T03:59:30;30.80;;;8.70;;
18433;SDS011;9344;52.294;13.626;2022-12-18T04:01:58;22.47;;;7.83;;
18433;SDS011;9344;52.294;13.626;2022-12-18T04:04:27;29.57;;;8.70;;
18433;SDS011;9344;52.294;13.626;2022-12-18T04:06:55;28.70;;;7.70;;
18433;SDS011;9344;52.294;13.626;2022-12-18T04:09:23;20.90;;;7.23;;
18433;SDS011;9344;52.294;13.626;2022-12-18T04:11:51;15.50;;;6.73;;
18433;SDS011;9344;52.294;13.626;2022-12-18T04:14:20;20.43;;;7.47;;
18433;SDS011;9344;52.294;13.626;2022-12-18T04:16:46;23.00;;;6.77;;
18433;SDS011;9344;52.294;13.626;2022-12-18T04:19:13;44.03;;;12.77;;
18433;SDS011;9344;52.294;13.626;2022-12-18T04:21:39;36.70;;;11.07;;
18433;SDS011;9344;52.294;13.626;2022-12-18T04:24:06;20.47;;;7.53;;
18433;SDS011;9344;52.294;13.626;2022-12-18T04:26:33;23.87;;;7.67;;
18433;SDS011;9344;52.294;13.626;2022-12-18T04:28:59;23.53;;;6.87;;
18433;SDS011;9344;52.294;13.626;2022-12-18T04:31:27;22.70;;;7.13;;
18433;SDS011;9344;52.294;13.626;2022-12-18T04:33:54;18.73;;;5.07;;
18433;SDS011;9344;52.294;13.626;2022-12-18T04:36:20;24.40;;;7.23;;
18433;SDS011;9344;52.294;13.626;2022-12-18T04:38:47;23.90;;;7.63;;
18433;SDS011;9344;52.294;13.626;2022-12-18T04:41:13;23.83;;;7.37;;
18433;SDS011;9344;52.294;13.626;2022-12-18T04:43:40;24.77;;;7.27;;
18433;SDS011;9344;52.294;13.626;2022-12-18T04:46:07;28.67;;;7.57;;
18433;SDS011;9344;52.294;13.626;2022-12-18T04:48:36;22.13;;;8.40;;
18433;SDS011;9344;52.294;13.626;2022-12-18T04:51:03;19.70;;;7.37;;
18433;SDS011;9344;52.294;13.626;2022-12-18T04:53:30;25.73;;;7.00;;
18433;SDS011;9344;52.294;13.626;2022-12-18T04:56:04;23.30;;;7.70;;
18433;SDS011;9344;52.294;13.626;2022-12-18T04:58:32;23.50;;;7.83;;
18433;SDS011;9344;52.294;13.626;2022-12-18T05:00:59;18.80;;;6.67;;
18433;SDS011;9344;52.294;13.626;2022-12-18T05:03:26;19.33;;;6.37;;
18433;SDS011;9344;52.294;13.626;2022-12-18T05:05:55;23.27;;;6.63;;
18433;SDS011;9344;52.294;13.626;2022-12-18T05:08:22;23.13;;;7.83;;
18433;SDS011;9344;52.294;13.626;2022-12-18T05:10:49;24.50;;;7.50;;
18433;SDS011;9344;52.294;13.626;2022-12-18T05:13:15;23.93;;;6.53;;
18433;SDS011;9344;52.294;13.626;2022-12-18T05:15:42;25.73;;;5.97;;
18433;SDS011;9344;52.294;13.626;2022-12-18T05:18:16;19.93;;;6.17;;
18433;SDS011;9344;52.294;13.626;2022-12-18T05:20:43;18.63;;;6.80;;
18433;SDS011;9344;52.294;13.626;2022-12-18T05:23:11;14.77;;;5.83;;
18433;SDS011;9344;52.294;13.626;2022-12-18T05:25:38;23.17;;;5.47;;
18433;SDS011;9344;52.294;13.626;2022-12-18T05:28:05;22.53;;;5.60;;
18433;SDS011;9344;52.294;13.626;2022-12-18T05:30:31;26.87;;;7.87;;
18433;SDS011;9344;52.294;13.626;2022-12-18T05:32:58;15.37;;;5.23;;
18433;SDS011;9344;52.294;13.626;2022-12-18T05:35:25;17.13;;;5.23;;
18433;SDS011;9344;52.294;13.626;2022-12-18T05:37:51;21.30;;;8.53;;
18433;SDS011;9344;52.294;13.626;2022-12-18T05:40:20;17.70;;;6.63;;
18433;SDS011;9344;52.294;13.626;2022-12-18T05:42:46;25.50;;;5.40;;
18433;SDS011;9344;52.294;13.626;2022-12-18T05:45:13;16.17;;;6.27;;
18433;SDS011;9344;52.294;13.626;2022-12-18T05:47:40;15.20;;;5.80;;
18433;SDS011;9344;52.294;13.626;2022-12-18T05:50:07;18.50;;;4.77;;
18433;SDS011;9344;52.294;13.626;2022-12-18T05:52:34;18.67;;;6.50;;
18433;SDS011;9344;52.294;13.626;2022-12-18T05:55:01;21.63;;;7.40;;
18433;SDS011;9344;52.294;13.626;2022-12-18T05:57:29;17.67;;;5.37;;
18433;SDS011;9344;52.294;13.626;2022-12-18T05:59:55;25.07;;;6.17;;
18433;SDS011;9344;52.294;13.626;2022-12-18T06:02:22;28.87;;;7.33;;
18433;SDS011;9344;52.294;13.626;2022-12-18T06:04:49;21.97;;;6.90;;
18433;SDS011;9344;52.294;13.626;2022-12-18T06:07:15;14.53;;;5.50;;
18433;SDS011;9344;52.294;13.626;2022-12-18T06:09:42;15.97;;;5.73;;
18433;SDS011;9344;52.294;13.626;2022-12-18T06:12:09;14.70;;;5.07;;
18433;SDS011;9344;52.294;13.626;2022-12-18T06:14:37;18.30;;;7.13;;
18433;SDS011;9344;52.294;13.626;2022-12-18T06:17:04;15.30;;;5.47;;
18433;SDS011;9344;52.294;13.626;2022-12-18T06:19:31;26.23;;;7.77;;
18433;SDS011;9344;52.294;13.626;2022-12-18T06:21:58;18.03;;;5.63;;
18433;SDS011;9344;52.294;13.626;2022-12-18T06:24:24;18.30;;;5.67;;
18433;SDS011;9344;52.294;13.626;2022-12-18T06:26:51;27.30;;;6.90;;
18433;SDS011;9344;52.294;13.626;2022-12-18T06:29:18;21.70;;;6.27;;
18433;SDS011;9344;52.294;13.626;2022-12-18T06:31:46;15.30;;;5.53;;
18433;SDS011;9344;52.294;13.626;2022-12-18T06:34:13;15.53;;;5.17;;
18433;SDS011;9344;52.294;13.626;2022-12-18T06:36:39;18.80;;;6.37;;
18433;SDS011;9344;52.294;13.626;2022-12-18T06:39:06;20.33;;;5.80;;
18433;SDS011;9344;52.294;13.626;2022-12-18T06:41:32;16.17;;;5.63;;
18433;SDS011;9344;52.294;13.626;2022-12-18T06:43:59;18.63;;;6.67;;
18433;SDS011;9344;52.294;13.626;2022-12-18T06:46:26;22.93;;;7.90;;
18433;SDS011;9344;52.294;13.626;2022-12-18T06:48:54;22.60;;;5.70;;
18433;SDS011;9344;52.294;13.626;2022-12-18T06:51:20;19.10;;;6.00;;
18433;SDS011;9344;52.294;13.626;2022-12-18T06:53:48;14.57;;;4.70;;
18433;SDS011;9344;52.294;13.626;2022-12-18T06:56:15;16.70;;;6.53;;
18433;SDS011;9344;52.294;13.626;2022-12-18T06:58:42;17.07;;;5.00;;
18433;SDS011;9344;52.294;13.626;2022-12-18T07:01:09;16.00;;;6.13;;
18433;SDS011;9344;52.294;13.626;2022-12-18T07:03:37;19.53;;;6.00;;
18433;SDS011;9344;52.294;13.626;2022-12-18T07:06:06;14.03;;;5.10;;
18433;SDS011;9344;52.294;13.626;2022-12-18T07:08:38;16.57;;;5.97;;
18433;SDS011;9344;52.294;13.626;2022-12-18T07:11:05;12.97;;;5.40;;
18433;SDS011;9344;52.294;13.626;2022-12-18T07:13:31;18.37;;;6.20;;
18433;SDS011;9344;52.294;13.626;2022-12-18T07:16:03;16.17;;;5.90;;
18433;SDS011;9344;52.294;13.626;2022-12-18T07:18:30;21.07;;;7.17;;
18433;SDS011;9344;52.294;13.626;2022-12-18T07:20:57;13.00;;;5.23;;
18433;SDS011;9344;52.294;13.626;2022-12-18T07:23:25;22.27;;;5.73;;
18433;SDS011;9344;52.294;13.626;2022-12-18T07:25:51;20.77;;;5.97;;
18433;SDS011;9344;52.294;13.626;2022-12-18T07:28:18;18.70;;;6.37;;
18433;SDS011;9344;52.294;13.626;2022-12-18T07:30:44;16.27;;;5.20;;
18433;SDS011;9344;52.294;13.626;2022-12-18T07:33:11;25.20;;;7.60;;
18433;SDS011;9344;52.294;13.626;2022-12-18T07:35:37;30.13;;;9.37;;
18433;SDS011;9344;52.294;13.626;2022-12-18T07:38:04;23.23;;;7.87;;
18433;SDS011;9344;52.294;13.626;2022-12-18T07:40:32;22.23;;;6.83;;
18433;SDS011;9344;52.294;13.626;2022-12-18T07:42:58;21.63;;;5.47;;
18433;SDS011;9344;52.294;13.626;2022-12-18T07:45:25;28.83;;;7.93;;
18433;SDS011;9344;52.294;13.626;2022-12-18T07:47:52;23.83;;;8.00;;
18433;SDS011;9344;52.294;13.626;2022-12-18T07:50:19;15.10;;;5.60;;
18433;SDS011;9344;52.294;13.626;2022-12-18T07:52:45;16.73;;;5.80;;
18433;SDS011;9344;52.294;13.626;2022-12-18T07:55:12;16.73;;;5.20;;
18433;SDS011;9344;52.294;13.626;2022-12-18T07:57:40;13.73;;;6.00;;
18433;SDS011;9344;52.294;13.626;2022-12-18T08:00:07;18.07;;;5.17;;
18433;SDS011;9344;52.294;13.626;2022-12-18T08:02:34;19.40;;;7.27;;
18433;SDS011;9344;52.294;13.626;2022-12-18T08:05:01;18.50;;;5.33;;
18433;SDS011;9344;52.294;13.626;2022-12-18T08:07:27;21.80;;;6.77;;
18433;SDS011;9344;52.294;13.626;2022-12-18T08:09:54;21.63;;;6.80;;
18433;SDS011;9344;52.294;13.626;2022-12-18T08:12:21;15.20;;;5.93;;
18433;SDS011;9344;52.294;13.626;2022-12-18T08:14:49;18.93;;;7.17;;
18433;SDS011;9344;52.294;13.626;2022-12-18T08:17:16;23.53;;;7.17;;
18433;SDS011;9344;52.294;13.626;2022-12-18T08:19:42;19.13;;;7.57;;
18433;SDS011;9344;52.294;13.626;2022-12-18T08:22:09;21.23;;;6.23;;
18433;SDS011;9344;52.294;13.626;2022-12-18T08:24:35;21.90;;;7.00;;
18433;SDS011;9344;52.294;13.626;2022-12-18T08:27:02;30.73;;;8.67;;
18433;SDS011;9344;52.294;13.626;2022-12-18T08:29:28;20.13;;;7.20;;
18433;SDS011;9344;52.294;13.626;2022-12-18T08:31:56;31.00;;;6.77;;
18433;SDS011;9344;52.294;13.626;2022-12-18T08:34:23;28.83;;;8.57;;
18433;SDS011;9344;52.294;13.626;2022-12-18T08:36:49;27.97;;;7.23;;
18433;SDS011;9344;52.294;13.626;2022-12-18T08:39:16;17.13;;;6.37;;
18433;SDS011;9344;52.294;13.626;2022-12-18T08:41:43;25.00;;;6.83;;
18433;SDS011;9344;52.294;13.626;2022-12-18T08:44:30;17.03;;;6.37;;
18433;SDS011;9344;52.294;13.626;2022-12-18T08:47:06;18.10;;;5.93;;
18433;SDS011;9344;52.294;13.626;2022-12-18T08:49:33;14.93;;;6.30;;
18433;SDS011;9344;52.294;13.626;2022-12-18T08:52:00;23.97;;;6.57;;
18433;SDS011;9344;52.294;13.626;2022-12-18T08:54:27;15.50;;;6.27;;
18433;SDS011;9344;52.294;13.626;2022-12-18T08:56:54;28.47;;;6.80;;
18433;SDS011;9344;52.294;13.626;2022-12-18T08:59:21;23.87;;;6.50;;
18433;SDS011;9344;52.294;13.626;2022-12-18T09:01:48;30.90;;;7.13;;
18433;SDS011;9344;52.294;13.626;2022-12-18T09:04:16;25.90;;;6.80;;
18433;SDS011;9344;52.294;13.626;2022-12-18T09:06:43;18.53;;;6.17;;
18433;SDS011;9344;52.294;13.626;2022-12-18T09:09:09;16.23;;;5.37;;
18433;SDS011;9344;52.294;13.626;2022-12-18T09:11:36;17.80;;;6.27;;
18433;SDS011;9344;52.294;13.626;2022-12-18T09:14:03;24.57;;;7.17;;
18433;SDS011;9344;52.294;13.626;2022-12-18T09:16:30;13.67;;;5.17;;
18433;SDS011;9344;52.294;13.626;2022-12-18T09:18:57;26.83;;;6.70;;
18433;SDS011;9344;52.294;13.626;2022-12-18T09:21:27;26.80;;;6.40;;
18433;SDS011;9344;52.294;13.626;2022-12-18T09:23:55;18.20;;;5.13;;
18433;SDS011;9344;52.294;13.626;2022-12-18T09:26:22;19.53;;;6.87;;
18433;SDS011;9344;52.294;13.626;2022-12-18T09:28:49;18.03;;;6.17;;
18433;SDS011;9344;52.294;13.626;2022-12-18T09:31:17;25.83;;;7.60;;
18433;SDS011;9344;52.294;13.626;2022-12-18T09:33:44;30.60;;;6.57;;
18433;SDS011;9344;52.294;13.626;2022-12-18T09:36:12;25.90;;;7.53;;
18433;SDS011;9344;52.294;13.626;2022-12-18T09:38:41;22.37;;;7.93;;
18433;SDS011;9344;52.294;13.626;2022-12-18T09:41:14;19.33;;;6.67;;
18433;SDS011;9344;52.294;13.626;2022-12-18T09:43:50;19.20;;;5.93;;
18433;SDS011;9344;52.294;13.626;2022-12-18T09:46:21;23.17;;;7.33;;
18433;SDS011;9344;52.294;13.626;2022-12-18T09:48:52;29.23;;;5.37;;
18433;SDS011;9344;52.294;13.626;2022-12-18T09:51:23;16.00;;;5.77;;
18433;SDS011;9344;52.294;13.626;2022-12-18T09:53:57;23.50;;;6.90;;
18433;SDS011;9344;52.294;13.626;2022-12-18T09:56:28;19.33;;;5.73;;
18433;SDS011;9344;52.294;13.626;2022-12-18T09:58:58;19.10;;;6.83;;
18433;SDS011;9344;52.294;13.626;2022-12-18T10:01:26;16.40;;;6.77;;
18433;SDS011;9344;52.294;13.626;2022-12-18T10:03:54;47.03;;;16.60;;
18433;SDS011;9344;52.294;13.626;2022-12-18T10:06:22;29.70;;;8.00;;
18433;SDS011;9344;52.294;13.626;2022-12-18T10:08:53;25.37;;;8.80;;
18433;SDS011;9344;52.294;13.626;2022-12-18T10:11:32;35.40;;;11.17;;
18433;SDS011;9344;52.294;13.626;2022-12-18T10:14:06;26.67;;;10.43;;
18433;SDS011;9344;52.294;13.626;2022-12-18T10:16:41;31.27;;;9.57;;
18433;SDS011;9344;52.294;13.626;2022-12-18T10:19:19;19.53;;;7.17;;
18433;SDS011;9344;52.294;13.626;2022-12-18T10:21:55;31.30;;;11.93;;
18433;SDS011;9344;52.294;13.626;2022-12-18T10:24:33;16.87;;;6.37;;
18433;SDS011;9344;52.294;13.626;2022-12-18T10:27:09;24.07;;;7.17;;
18433;SDS011;9344;52.294;13.626;2022-12-18T10:29:40;32.27;;;7.00;;
18433;SDS011;9344;52.294;13.626;2022-12-18T10:32:09;16.20;;;5.70;;
18433;SDS011;9344;52.294;13.626;2022-12-18T10:34:41;15.50;;;5.37;;
18433;SDS011;9344;52.294;13.626;2022-12-18T10:37:11;20.33;;;6.20;;
18433;SDS011;9344;52.294;13.626;2022-12-18T10:39:43;17.93;;;5.70;;
18433;SDS011;9344;52.294;13.626;2022-12-18T10:42:10;17.73;;;6.53;;
18433;SDS011;9344;52.294;13.626;2022-12-18T10:44:42;11.77;;;5.23;;
18433;SDS011;9344;52.294;13.626;2022-12-18T10:47:11;18.93;;;5.70;;
18433;SDS011;9344;52.294;13.626;2022-12-18T10:49:41;17.03;;;6.07;;
18433;SDS011;9344;52.294;13.626;2022-12-18T10:52:14;18.40;;;9.33;;
18433;SDS011;9344;52.294;13.626;2022-12-18T10:54:48;24.87;;;8.27;;
18433;SDS011;9344;52.294;13.626;2022-12-18T10:57:17;19.57;;;6.83;;
18433;SDS011;9344;52.294;13.626;2022-12-18T10:59:56;21.57;;;6.23;;
18433;SDS011;9344;52.294;13.626;2022-12-18T11:02:25;21.57;;;5.67;;
18433;SDS011;9344;52.294;13.626;2022-12-18T11:04:54;10.37;;;5.03;;
18433;SDS011;9344;52.294;13.626;2022-12-18T11:07:21;19.13;;;6.00;;
18433;SDS011;9344;52.294;13.626;2022-12-18T11:09:59;14.43;;;5.97;;
18433;SDS011;9344;52.294;13.626;2022-12-18T11:12:27;24.90;;;6.73;;
18433;SDS011;9344;52.294;13.626;2022-12-18T11:14:55;17.70;;;5.97;;
18433;SDS011;9344;52.294;13.626;2022-12-18T11:17:25;13.90;;;5.50;;
18433;SDS011;9344;52.294;13.626;2022-12-18T11:19:55;26.43;;;7.37;;
18433;SDS011;9344;52.294;13.626;2022-12-18T11:22:23;23.73;;;6.67;;
18433;SDS011;9344;52.294;13.626;2022-12-18T11:24:54;13.73;;;4.77;;
18433;SDS011;9344;52.294;13.626;2022-12-18T11:27:23;13.87;;;5.43;;
18433;SDS011;9344;52.294;13.626;2022-12-18T11:30:06;18.80;;;6.60;;
18433;SDS011;9344;52.294;13.626;2022-12-18T11:32:35;18.13;;;7.30;;
18433;SDS011;9344;52.294;13.626;2022-12-18T11:35:09;14.53;;;5.87;;
18433;SDS011;9344;52.294;13.626;2022-12-18T11:37:41;16.37;;;5.40;;
18433;SDS011;9344;52.294;13.626;2022-12-18T11:40:13;18.00;;;6.80;;
18433;SDS011;9344;52.294;13.626;2022-12-18T11:42:44;16.27;;;5.33;;
18433;SDS011;9344;52.294;13.626;2022-12-18T11:45:27;13.20;;;5.93;;
18433;SDS011;9344;52.294;13.626;2022-12-18T11:47:57;17.43;;;6.57;;
18433;SDS011;9344;52.294;13.626;2022-12-18T11:50:28;18.97;;;5.40;;
18433;SDS011;9344;52.294;13.626;2022-12-18T11:52:58;20.90;;;7.50;;
18433;SDS011;9344;52.294;13.626;2022-12-18T11:55:30;14.83;;;6.20;;
18433;SDS011;9344;52.294;13.626;2022-12-18T11:58:03;17.33;;;5.50;;
18433;SDS011;9344;52.294;13.626;2022-12-18T12:00:36;19.20;;;5.57;;
18433;SDS011;9344;52.294;13.626;2022-12-18T12:06:14;15.90;;;6.23;;
18433;SDS011;9344;52.294;13.626;2022-12-18T12:08:52;27.60;;;6.40;;
18433;SDS011;9344;52.294;13.626;2022-12-18T12:11:28;23.83;;;6.47;;
18433;SDS011;9344;52.294;13.626;2022-12-18T12:14:08;21.43;;;6.73;;
18433;SDS011;9344;52.294;13.626;2022-12-18T12:16:46;19.10;;;6.73;;
18433;SDS011;9344;52.294;13.626;2022-12-18T12:19:22;32.63;;;10.77;;
18433;SDS011;9344;52.294;13.626;2022-12-18T12:22:03;22.67;;;8.67;;
18433;SDS011;9344;52.294;13.626;2022-12-18T12:24:39;21.73;;;7.70;;
18433;SDS011;9344;52.294;13.626;2022-12-18T12:27:22;20.60;;;7.30;;
18433;SDS011;9344;52.294;13.626;2022-12-18T12:30:00;22.43;;;8.73;;
18433;SDS011;9344;52.294;13.626;2022-12-18T12:32:33;22.27;;;8.23;;
18433;SDS011;9344;52.294;13.626;2022-12-18T12:35:28;28.20;;;9.40;;
18433;SDS011;9344;52.294;13.626;2022-12-18T12:38:04;28.40;;;10.33;;
18433;SDS011;9344;52.294;13.626;2022-12-18T12:40:34;26.47;;;9.00;;
18433;SDS011;9344;52.294;13.626;2022-12-18T12:43:12;25.80;;;9.80;;
18433;SDS011;9344;52.294;13.626;2022-12-18T12:45:47;22.80;;;9.93;;
18433;SDS011;9344;52.294;13.626;2022-12-18T12:48:18;34.63;;;11.10;;
18433;SDS011;9344;52.294;13.626;2022-12-18T12:50:50;42.77;;;14.17;;
18433;SDS011;9344;52.294;13.626;2022-12-18T12:53:21;41.77;;;16.27;;
18433;SDS011;9344;52.294;13.626;2022-12-18T12:55:52;36.73;;;12.93;;
18433;SDS011;9344;52.294;13.626;2022-12-18T12:58:22;40.23;;;13.70;;
18433;SDS011;9344;52.294;13.626;2022-12-18T13:00:57;38.27;;;10.73;;
18433;SDS011;9344;52.294;13.626;2022-12-18T13:03:33;39.33;;;11.50;;
18433;SDS011;9344;52.294;13.626;2022-12-18T13:06:08;32.80;;;10.73;;
18433;SDS011;9344;52.294;13.626;2022-12-18T13:08:51;31.97;;;10.03;;
18433;SDS011;9344;52.294;13.626;2022-12-18T13:11:28;31.17;;;11.00;;
18433;SDS011;9344;52.294;13.626;2022-12-18T13:14:24;43.03;;;12.53;;
18433;SDS011;9344;52.294;13.626;2022-12-18T13:20:02;25.10;;;8.57;;
18433;SDS011;9344;52.294;13.626;2022-12-18T13:22:35;21.47;;;7.40;;
18433;SDS011;9344;52.294;13.626;2022-12-18T13:28:10;22.00;;;8.20;;
18433;SDS011;9344;52.294;13.626;2022-12-18T13:30:43;10.17;;;5.13;;
18433;SDS011;9344;52.294;13.626;2022-12-18T13:36:15;24.70;;;8.43;;
18433;SDS011;9344;52.294;13.626;2022-12-18T13:41:37;23.13;;;8.77;;
18433;SDS011;9344;52.294;13.626;2022-12-18T13:44:10;25.50;;;7.33;;
18433;SDS011;9344;52.294;13.626;2022-12-18T13:46:43;20.20;;;7.17;;
18433;SDS011;9344;52.294;13.626;2022-12-18T13:49:18;17.03;;;6.57;;
18433;SDS011;9344;52.294;13.626;2022-12-18T13:51:51;13.23;;;5.53;;
18433;SDS011;9344;52.294;13.626;2022-12-18T13:54:19;27.10;;;6.50;;
18433;SDS011;9344;52.294;13.626;2022-12-18T13:56:56;18.47;;;6.87;;
18433;SDS011;9344;52.294;13.626;2022-12-18T13:59:25;21.33;;;6.83;;
18433;SDS011;9344;52.294;13.626;2022-12-18T14:01:55;12.60;;;5.10;;
18433;SDS011;9344;52.294;13.626;2022-12-18T14:04:24;17.83;;;7.20;;
18433;SDS011;9344;52.294;13.626;2022-12-18T14:06:53;23.07;;;7.97;;
18433;SDS011;9344;52.294;13.626;2022-12-18T14:09:24;14.50;;;6.23;;
18433;SDS011;9344;52.294;13.626;2022-12-18T14:11:54;17.13;;;5.90;;
18433;SDS011;9344;52.294;13.626;2022-12-18T14:14:44;9.80;;;4.17;;
18433;SDS011;9344;52.294;13.626;2022-12-18T14:17:18;16.77;;;5.77;;
18433;SDS011;9344;52.294;13.626;2022-12-18T14:19:45;13.47;;;4.57;;
18433;SDS011;9344;52.294;13.626;2022-12-18T14:22:15;11.33;;;5.00;;
18433;SDS011;9344;52.294;13.626;2022-12-18T14:24:43;11.37;;;5.10;;
18433;SDS011;9344;52.294;13.626;2022-12-18T14:27:21;13.07;;;5.23;;
18433;SDS011;9344;52.294;13.626;2022-12-18T14:29:55;10.97;;;5.07;;
18433;SDS011;9344;52.294;13.626;2022-12-18T14:32:25;18.00;;;5.80;;
18433;SDS011;9344;52.294;13.626;2022-12-18T14:34:57;11.17;;;5.00;;
18433;SDS011;9344;52.294;13.626;2022-12-18T14:37:26;12.47;;;4.73;;
18433;SDS011;9344;52.294;13.626;2022-12-18T14:39:57;16.10;;;5.53;;
18433;SDS011;9344;52.294;13.626;2022-12-18T14:42:33;16.97;;;6.90;;
18433;SDS011;9344;52.294;13.626;2022-12-18T14:48:09;10.80;;;4.87;;
18433;SDS011;9344;52.294;13.626;2022-12-18T14:50:41;17.03;;;5.77;;
18433;SDS011;9344;52.294;13.626;2022-12-18T14:53:18;8.60;;;4.33;;
18433;SDS011;9344;52.294;13.626;2022-12-18T14:55:46;11.23;;;4.73;;
18433;SDS011;9344;52.294;13.626;2022-12-18T14:58:14;11.53;;;5.50;;
18433;SDS011;9344;52.294;13.626;2022-12-18T15:00:42;11.53;;;6.37;;
18433;SDS011;9344;52.294;13.626;2022-12-18T15:03:12;13.93;;;5.20;;
18433;SDS011;9344;52.294;13.626;2022-12-18T15:05:43;12.33;;;5.97;;
18433;SDS011;9344;52.294;13.626;2022-12-18T15:08:24;14.03;;;4.63;;